Time;durP1;ratioP1;P1;durP2;ratioP2;P2;SDS_P1;SDS_P2;PMS_P1;PMS_P2;Temp;Humidity;BMP_temperature;BMP_pressure;BME280_temperature;BME280_humidity;BME280_pressure;Samples;Min_cycle;Max_cycle;Signal;HPM_P1;HPM_P2
2024/04/18 00:00:01;;;;;;;3.73;1.50;;;2.20;99.90;1.90;99967.00;;;;5314093;26;100001;-63
2024/04/18 00:02:27;;;;;;;3.03;1.77;;;2.20;99.90;1.80;99963.00;;;;5307963;26;85756;-63
2024/04/18 00:04:53;;;;;;;2.50;1.37;;;2.20;99.90;1.80;99968.00;;;;5308853;26;115667;-63
2024/04/18 00:07:18;;;;;;;2.80;1.50;;;2.00;99.90;1.80;99974.00;;;;5306459;26;84172;-64
2024/04/18 00:09:44;;;;;;;2.03;1.53;;;1.50;99.90;1.80;99964.00;;;;5314121;26;103910;-64
2024/04/18 00:12:10;;;;;;;1.63;1.53;;;2.40;99.90;1.80;99977.00;;;;5311265;26;103569;-64
2024/04/18 00:14:35;;;;;;;2.33;1.47;;;2.20;99.90;1.70;99976.00;;;;5309153;26;112728;-63
2024/04/18 00:17:01;;;;;;;2.50;2.30;;;2.00;99.90;1.70;99975.00;;;;5307195;26;107425;-64
2024/04/18 00:19:27;;;;;;;1.43;1.33;;;2.00;99.90;1.60;99980.00;;;;5307278;26;104028;-63
2024/04/18 00:21:52;;;;;;;1.83;1.43;;;2.00;99.90;1.60;99983.00;;;;5304752;26;113470;-63
2024/04/18 00:24:18;;;;;;;1.77;1.33;;;1.90;99.90;1.50;99979.00;;;;5307564;26;115301;-64
2024/04/18 00:26:43;;;;;;;2.83;1.40;;;1.90;99.90;1.50;99981.00;;;;5315195;26;108968;-63
2024/04/18 00:29:10;;;;;;;1.67;1.57;;;1.80;99.90;1.50;99977.00;;;;5312554;26;86053;-64
2024/04/18 00:31:35;;;;;;;5.40;2.00;;;1.80;99.90;1.40;99977.00;;;;5308653;26;85312;-63
2024/04/18 00:34:01;;;;;;;1.97;1.70;;;1.70;99.90;1.30;99982.00;;;;5305821;26;113926;-63
2024/04/18 00:36:27;;;;;;;2.87;1.73;;;1.70;99.90;1.30;99980.00;;;;5309474;26;84626;-64
2024/04/18 00:38:52;;;;;;;2.53;1.83;;;1.60;99.90;1.20;99999.00;;;;5306161;26;90516;-63
2024/04/18 00:41:18;;;;;;;3.40;2.13;;;1.50;99.90;1.10;99992.00;;;;5307458;26;113707;-63
2024/04/18 00:43:44;;;;;;;3.30;1.70;;;1.50;99.90;1.10;99990.00;;;;5304161;26;115428;-63
2024/04/18 00:46:10;;;;;;;2.87;2.10;;;1.40;99.90;1.00;99985.00;;;;5310446;26;91238;-64
2024/04/18 00:48:36;;;;;;;2.40;2.03;;;1.40;99.90;0.90;99993.00;;;;5314564;26;107179;-63
2024/04/18 00:51:03;;;;;;;4.83;1.87;;;1.30;99.90;0.90;99985.00;;;;5308544;26;110934;-63
2024/04/18 00:53:30;;;;;;;2.90;1.70;;;1.30;99.90;0.90;99985.00;;;;5308495;26;84981;-65
2024/04/18 00:55:57;;;;;;;2.33;2.13;;;1.20;99.90;0.90;99995.00;;;;5309871;26;107933;-63
2024/04/18 00:58:25;;;;;;;1.80;1.67;;;1.30;99.90;0.80;99990.00;;;;5310337;26;91455;-64
2024/04/18 01:00:52;;;;;;;2.27;1.43;;;1.20;99.90;0.80;99996.00;;;;5305386;26;114705;-62
2024/04/18 01:03:18;;;;;;;2.93;1.77;;;1.20;99.90;0.80;99997.00;;;;5307048;26;88295;-63
2024/04/18 01:05:44;;;;;;;1.90;1.70;;;1.10;99.90;0.70;99992.00;;;;5314771;26;108289;-63
2024/04/18 01:08:10;;;;;;;2.17;1.20;;;1.10;99.90;0.70;99996.00;;;;5306407;26;107237;-63
2024/04/18 01:10:35;;;;;;;2.20;2.00;;;1.10;99.90;0.70;99999.00;;;;5309338;26;116635;-63
2024/04/18 01:13:01;;;;;;;4.27;2.03;;;1.10;99.90;0.70;99993.00;;;;5306906;26;113904;-63
2024/04/18 01:15:28;;;;;;;3.87;2.57;;;1.00;99.90;0.70;100004.00;;;;5309520;26;96903;-63
2024/04/18 01:17:54;;;;;;;2.70;1.90;;;1.00;99.90;0.60;100010.00;;;;5306061;26;84688;-63
2024/04/18 01:20:24;;;;;;;2.80;1.90;;;0.90;99.90;0.60;100010.00;;;;5312047;26;100270;-63
2024/04/18 01:22:51;;;;;;;2.13;1.53;;;1.00;99.90;0.60;100012.00;;;;5307143;26;84667;-63
2024/04/18 01:25:17;;;;;;;2.00;1.80;;;1.00;99.90;0.60;100004.00;;;;5304630;26;102693;-63
2024/04/18 01:27:42;;;;;;;2.50;2.00;;;0.90;99.90;0.50;100000.00;;;;5311651;26;99199;-64
2024/04/18 01:30:08;;;;;;;4.57;2.23;;;0.80;99.90;0.50;100004.00;;;;5308772;26;113084;-62
2024/04/18 01:32:35;;;;;;;2.53;1.80;;;0.80;99.90;0.40;100005.00;;;;5309404;26;104616;-62
2024/04/18 01:35:06;;;;;;;3.30;1.90;;;0.80;99.90;0.40;100007.00;;;;5307751;26;89375;-63
2024/04/18 01:37:31;;;;;;;2.03;1.70;;;0.80;99.90;0.50;100011.00;;;;5312686;26;84388;-63
2024/04/18 01:39:57;;;;;;;3.50;2.20;;;0.80;99.90;0.50;100014.00;;;;5306770;26;114260;-63
2024/04/18 01:42:23;;;;;;;2.17;1.97;;;0.80;99.90;0.50;100008.00;;;;5305380;26;115077;-63
2024/04/18 01:44:49;;;;;;;2.50;1.57;;;0.80;99.90;0.50;100009.00;;;;5309929;26;108645;-63
2024/04/18 01:47:14;;;;;;;1.87;1.50;;;0.90;99.90;0.50;100010.00;;;;5333435;25;84226;-64
2024/04/18 01:49:40;;;;;;;2.30;1.80;;;0.90;99.90;0.50;100012.00;;;;5310861;26;115408;-64
2024/04/18 01:52:06;;;;;;;2.23;1.53;;;0.90;99.90;0.50;100013.00;;;;5309373;26;115318;-63
2024/04/18 01:54:33;;;;;;;2.13;1.47;;;0.80;99.90;0.60;100016.00;;;;5310375;26;107441;-63
2024/04/18 01:56:59;;;;;;;2.57;2.00;;;0.80;99.90;0.60;100023.00;;;;5312397;26;84711;-64
2024/04/18 01:59:25;;;;;;;1.97;1.37;;;1.00;99.90;0.70;100026.00;;;;5307764;26;92960;-64
2024/04/18 02:01:50;;;;;;;2.57;1.77;;;0.90;99.90;0.70;100019.00;;;;5306660;26;115677;-64
2024/04/18 02:04:17;;;;;;;2.20;1.50;;;1.10;99.90;0.70;100022.00;;;;5306773;26;87834;-64
2024/04/18 02:06:43;;;;;;;4.40;1.67;;;1.00;99.90;0.70;100037.00;;;;5310142;26;84145;-64
2024/04/18 02:09:09;;;;;;;5.90;1.90;;;1.10;99.90;0.70;100035.00;;;;5305608;26;101213;-64
2024/04/18 02:11:39;;;;;;;2.27;1.23;;;1.00;99.90;0.70;100038.00;;;;5308598;26;84418;-63
2024/04/18 02:14:05;;;;;;;1.10;0.93;;;1.00;99.90;0.70;100050.00;;;;5305005;26;101507;-64
2024/04/18 02:16:31;;;;;;;3.03;2.03;;;1.00;99.90;0.70;100044.00;;;;5306165;26;106805;-63
2024/04/18 02:18:56;;;;;;;1.60;1.40;;;1.00;99.90;0.60;100043.00;;;;5307575;26;84807;-64
2024/04/18 02:21:22;;;;;;;3.60;1.83;;;0.90;99.90;0.60;100035.00;;;;5306726;26;114553;-64
2024/04/18 02:23:47;;;;;;;2.13;1.60;;;1.00;99.90;0.50;100048.00;;;;5304545;26;107618;-64
2024/04/18 02:26:13;;;;;;;1.23;1.00;;;0.90;99.90;0.50;100046.00;;;;5305542;26;104897;-63
2024/04/18 02:28:39;;;;;;;2.13;1.57;;;1.20;99.90;0.40;100047.00;;;;5312833;26;115105;-63
2024/04/18 02:31:04;;;;;;;1.83;1.30;;;0.80;99.90;0.40;100045.00;;;;5303469;26;114442;-62
2024/04/18 02:33:32;;;;;;;1.17;1.07;;;0.90;99.90;0.40;100055.00;;;;5304302;26;108259;-63
2024/04/18 02:35:58;;;;;;;3.67;2.00;;;0.70;99.90;0.30;100050.00;;;;5310094;26;106951;-63
2024/04/18 02:38:23;;;;;;;1.83;1.70;;;0.70;99.90;0.30;100047.00;;;;5308686;26;113977;-64
2024/04/18 02:40:49;;;;;;;2.30;1.83;;;0.80;99.90;0.20;100053.00;;;;5308949;26;114653;-63
2024/04/18 02:43:14;;;;;;;1.70;1.60;;;0.60;99.90;0.10;100054.00;;;;5305085;26;107724;-63
2024/04/18 02:45:41;;;;;;;1.53;1.43;;;0.50;99.90;0.10;100053.00;;;;5309935;26;104793;-63
2024/04/18 02:48:06;;;;;;;2.00;1.80;;;0.50;99.90;0.00;100046.00;;;;5303143;26;115519;-63
2024/04/18 02:50:32;;;;;;;2.63;1.77;;;0.40;99.90;0.00;100060.00;;;;5308203;26;115632;-63
2024/04/18 02:52:58;;;;;;;2.00;1.70;;;0.30;99.90;-0.10;100064.00;;;;5307451;26;84958;-63
2024/04/18 02:55:23;;;;;;;2.30;2.03;;;0.30;99.90;-0.10;100069.00;;;;5303285;26;106199;-64
2024/04/18 02:57:49;;;;;;;3.43;1.63;;;0.30;99.90;-0.10;100062.00;;;;5305413;26;114891;-63
2024/04/18 03:00:15;;;;;;;3.23;2.07;;;0.40;99.90;-0.10;100063.00;;;;5304666;26;114213;-64
2024/04/18 03:02:41;;;;;;;2.67;1.67;;;0.20;99.90;-0.20;100058.00;;;;5299205;26;92491;-63
2024/04/18 03:05:07;;;;;;;1.40;1.30;;;0.20;99.90;-0.20;100069.00;;;;5301976;26;105087;-63
2024/04/18 03:07:32;;;;;;;2.67;1.40;;;0.20;99.90;-0.20;100058.00;;;;5303107;26;114257;-63
2024/04/18 03:09:58;;;;;;;2.70;1.53;;;0.10;99.90;-0.20;100070.00;;;;5305092;26;113539;-63
2024/04/18 03:12:24;;;;;;;2.80;1.83;;;0.20;99.90;-0.20;100064.00;;;;5304131;26;109065;-63
2024/04/18 03:14:49;;;;;;;1.77;1.53;;;0.10;99.90;-0.20;100075.00;;;;5308473;26;90194;-63
2024/04/18 03:17:15;;;;;;;3.67;1.57;;;0.10;99.90;-0.30;100073.00;;;;5306496;26;85039;-63
2024/04/18 03:19:41;;;;;;;2.63;2.40;;;0.20;99.90;-0.30;100084.00;;;;5311917;26;84440;-63
2024/04/18 03:22:07;;;;;;;1.90;1.80;;;0.00;99.90;-0.30;100082.00;;;;5305801;26;106927;-63
2024/04/18 03:24:32;;;;;;;1.80;1.50;;;0.10;99.90;-0.30;100087.00;;;;5299543;26;107085;-63
2024/04/18 03:26:58;;;;;;;3.17;2.13;;;0.00;99.90;-0.40;100083.00;;;;5303353;26;109702;-64
2024/04/18 03:29:23;;;;;;;2.77;2.30;;;0.10;99.90;-0.40;100085.00;;;;5308443;26;114027;-63
2024/04/18 03:31:51;;;;;;;3.17;2.13;;;0.00;99.90;-0.40;100087.00;;;;5308382;26;89053;-63
2024/04/18 03:34:16;;;;;;;2.47;1.80;;;0.00;99.90;-0.50;100092.00;;;;5303606;26;84596;-63
2024/04/18 03:36:52;;;;;;;2.63;1.97;;;-0.10;99.90;-0.50;100085.00;;;;5302747;26;86210;-64
2024/04/18 03:39:18;;;;;;;2.73;2.03;;;-0.10;99.90;-0.50;100089.00;;;;5307442;26;85243;-63
2024/04/18 03:41:46;;;;;;;3.80;2.27;;;-0.20;99.90;-0.60;100096.00;;;;5303001;26;98305;-62
2024/04/18 03:44:12;;;;;;;2.73;2.40;;;-0.20;99.90;-0.60;100096.00;;;;5306703;26;84586;-64
2024/04/18 03:46:38;;;;;;;4.63;1.90;;;-0.20;99.90;-0.70;100099.00;;;;5294956;25;108996;-62
2024/04/18 03:49:04;;;;;;;2.90;1.97;;;-0.30;99.90;-0.70;100093.00;;;;5265370;25;91429;-62
2024/04/18 03:51:30;;;;;;;3.13;2.57;;;-0.20;99.90;-0.70;100098.00;;;;5304214;25;86883;-63
2024/04/18 03:53:59;;;;;;;3.63;2.13;;;-0.30;99.90;-0.80;100102.00;;;;5301220;26;108122;-63
2024/04/18 03:56:25;;;;;;;2.30;2.10;;;-0.40;99.90;-0.80;100101.00;;;;5309005;26;85463;-63
2024/04/18 03:58:52;;;;;;;2.10;1.47;;;-0.40;99.90;-0.80;100100.00;;;;5305268;26;113555;-63
2024/04/18 04:01:18;;;;;;;3.27;1.77;;;-0.40;99.90;-0.90;100104.00;;;;5307867;26;85757;-65
2024/04/18 04:03:44;;;;;;;5.20;3.13;;;-0.50;99.90;-0.90;100101.00;;;;5307499;26;84437;-63
2024/04/18 04:06:09;;;;;;;5.03;1.73;;;-0.40;99.90;-0.90;100108.00;;;;5303343;26;113787;-62
2024/04/18 04:08:35;;;;;;;3.43;2.20;;;-0.60;99.90;-0.90;100114.00;;;;5307195;26;105567;-64
2024/04/18 04:11:01;;;;;;;2.67;2.07;;;-0.50;99.90;-0.90;100110.00;;;;5303424;26;107671;-62
2024/04/18 04:13:26;;;;;;;1.73;1.63;;;-0.50;99.90;-0.90;100121.00;;;;5303262;26;105815;-62
2024/04/18 04:15:52;;;;;;;1.93;1.83;;;-0.50;99.90;-0.90;100119.00;;;;5300659;26;114825;-64
2024/04/18 04:18:18;;;;;;;3.73;2.43;;;-0.60;99.90;-0.90;100134.00;;;;5304608;26;113719;-63
2024/04/18 04:20:44;;;;;;;2.47;1.80;;;-0.60;99.90;-0.80;100130.00;;;;5309907;26;107195;-62
2024/04/18 04:23:10;;;;;;;3.07;2.30;;;-0.50;99.90;-0.80;100140.00;;;;5303146;26;84687;-63
2024/04/18 04:25:36;;;;;;;3.10;2.33;;;-0.40;99.90;-0.80;100138.00;;;;5308529;26;105769;-63
2024/04/18 04:28:01;;;;;;;2.37;1.93;;;-0.50;99.90;-0.80;100136.00;;;;5310486;26;115082;-63
2024/04/18 04:30:27;;;;;;;2.97;2.57;;;-0.30;99.90;-0.80;100143.00;;;;5309848;26;103635;-63
2024/04/18 04:32:53;;;;;;;3.20;2.20;;;-0.40;99.90;-0.70;100151.00;;;;5307827;26;105071;-63
2024/04/18 04:35:18;;;;;;;5.43;2.07;;;-0.80;99.90;-0.70;100154.00;;;;5308872;26;112272;-63
2024/04/18 04:37:44;;;;;;;4.23;3.13;;;-0.30;99.90;-0.70;100154.00;;;;5308043;26;114402;-63
2024/04/18 04:40:10;;;;;;;4.57;3.37;;;-0.40;99.90;-0.70;100154.00;;;;5305713;26;105709;-63
2024/04/18 04:42:35;;;;;;;5.40;3.33;;;-0.30;99.90;-0.60;100159.00;;;;5309180;26;83645;-63
2024/04/18 04:45:01;;;;;;;3.10;2.77;;;-0.30;99.90;-0.60;100160.00;;;;5306641;26;113683;-63
2024/04/18 04:47:27;;;;;;;5.07;4.20;;;-0.20;99.90;-0.60;100166.00;;;;5307187;26;115280;-64
2024/04/18 04:49:52;;;;;;;3.67;3.33;;;-0.30;99.90;-0.50;100170.00;;;;5311965;26;106577;-65
2024/04/18 04:52:18;;;;;;;5.43;4.00;;;-0.10;99.90;-0.40;100181.00;;;;5302765;26;84299;-64
2024/04/18 04:54:45;;;;;;;3.93;3.07;;;-0.10;99.90;-0.20;100193.00;;;;5305519;26;113202;-64
2024/04/18 04:57:11;;;;;;;6.47;3.40;;;0.10;99.90;-0.10;100185.00;;;;5300655;26;85966;-64
2024/04/18 04:59:37;;;;;;;4.63;3.67;;;0.30;99.90;0.10;100183.00;;;;5301221;26;107259;-64
2024/04/18 05:02:03;;;;;;;9.53;3.83;;;0.40;99.90;0.30;100197.00;;;;5303356;26;104553;-63
2024/04/18 05:04:29;;;;;;;10.17;4.00;;;0.50;99.90;0.50;100196.00;;;;5312706;26;102077;-65
2024/04/18 05:06:55;;;;;;;3.93;3.30;;;0.70;99.90;0.70;100208.00;;;;5302122;25;115090;-62
2024/04/18 05:09:21;;;;;;;5.30;3.73;;;1.00;99.90;0.90;100197.00;;;;5304802;26;107442;-62
2024/04/18 05:11:47;;;;;;;7.40;2.83;;;1.10;99.90;1.10;100201.00;;;;5303110;26;106829;-62
2024/04/18 05:14:13;;;;;;;4.17;3.27;;;1.30;99.90;1.30;100207.00;;;;5308846;26;86557;-62
2024/04/18 05:16:39;;;;;;;3.70;2.80;;;1.50;99.90;1.50;100210.00;;;;5306777;26;86067;-63
2024/04/18 05:19:05;;;;;;;3.60;2.60;;;1.70;99.90;1.70;100210.00;;;;5308418;26;107534;-64
2024/04/18 05:21:31;;;;;;;2.57;2.37;;;1.90;99.90;1.80;100212.00;;;;5309607;26;105040;-63
2024/04/18 05:23:57;;;;;;;8.03;3.53;;;2.10;99.90;2.00;100222.00;;;;5303463;26;113706;-63
2024/04/18 05:26:31;;;;;;;6.30;2.70;;;2.20;99.90;2.20;100222.00;;;;5301644;26;103838;-63
2024/04/18 05:31:50;;;;;;;3.97;2.63;;;2.50;99.90;2.60;100233.00;;;;5274807;26;83812;-63
2024/04/18 05:34:15;;;;;;;2.83;2.07;;;2.70;99.90;2.70;100242.00;;;;5306477;26;86112;-63
2024/04/18 05:36:43;;;;;;;2.40;2.03;;;2.80;99.90;2.90;100237.00;;;;5302894;26;86242;-64
2024/04/18 05:39:09;;;;;;;3.10;2.30;;;3.00;99.90;3.00;100240.00;;;;5298498;26;101307;-64
2024/04/18 05:41:36;;;;;;;2.33;2.13;;;3.10;99.90;3.10;100242.00;;;;5301756;26;107535;-64
2024/04/18 05:44:02;;;;;;;2.37;2.00;;;3.30;99.90;3.30;100245.00;;;;5305663;26;85221;-65
2024/04/18 05:46:27;;;;;;;1.83;1.73;;;4.30;99.90;3.40;100243.00;;;;5307429;26;114628;-65
2024/04/18 05:48:53;;;;;;;2.70;2.10;;;3.60;99.90;3.50;100251.00;;;;5304040;26;106110;-65
2024/04/18 05:51:19;;;;;;;2.47;1.50;;;3.60;99.90;3.60;100237.00;;;;5306811;26;106806;-64
2024/04/18 05:53:44;;;;;;;1.60;1.50;;;3.70;99.90;3.70;100253.00;;;;5304592;26;114983;-64
2024/04/18 05:56:10;;;;;;;2.23;2.00;;;3.90;99.90;3.80;100256.00;;;;5306083;26;114768;-65
2024/04/18 05:58:37;;;;;;;2.47;1.87;;;3.90;99.90;3.90;100264.00;;;;5305443;26;106992;-62
2024/04/18 06:01:04;;;;;;;3.27;2.20;;;4.00;99.90;4.00;100259.00;;;;5307375;26;86373;-65
2024/04/18 06:03:30;;;;;;;1.97;1.60;;;4.10;99.90;4.10;100269.00;;;;5304925;26;86013;-63
2024/04/18 06:05:56;;;;;;;3.13;2.40;;;4.10;99.90;4.20;100257.00;;;;5304844;26;86160;-63
2024/04/18 06:08:23;;;;;;;5.57;4.00;;;4.30;99.90;4.40;100276.00;;;;5303337;26;84685;-64
2024/04/18 06:10:49;;;;;;;5.67;4.70;;;4.50;99.90;4.60;100275.00;;;;5307306;26;84585;-63
2024/04/18 06:13:15;;;;;;;3.83;3.37;;;4.80;99.90;4.70;100274.00;;;;5304490;26;92881;-63
2024/04/18 06:15:45;;;;;;;5.50;3.53;;;4.80;99.90;4.90;100291.00;;;;5302340;26;96954;-63
2024/04/18 06:18:11;;;;;;;5.53;3.20;;;5.60;99.90;5.00;100286.00;;;;5300922;26;84528;-63
2024/04/18 06:20:44;;;;;;;4.77;3.27;;;5.30;99.90;5.30;100280.00;;;;5301767;26;106136;-63
2024/04/18 06:23:10;;;;;;;2.03;1.80;;;5.30;99.90;5.50;100298.00;;;;5306004;26;85153;-64
2024/04/18 06:25:36;;;;;;;2.57;1.77;;;5.50;99.90;5.70;100305.00;;;;5302130;26;84343;-64
2024/04/18 06:28:06;;;;;;;4.20;2.83;;;5.70;99.90;5.80;100306.00;;;;5299641;26;85729;-64
2024/04/18 06:30:32;;;;;;;2.80;2.20;;;5.90;99.90;5.90;100310.00;;;;5305343;26;99263;-64
2024/04/18 06:32:58;;;;;;;2.33;2.00;;;6.20;99.90;6.00;100320.00;;;;5301494;26;114119;-64
2024/04/18 06:35:24;;;;;;;2.53;2.07;;;6.00;99.90;6.00;100321.00;;;;5298695;26;84913;-64
2024/04/18 06:37:49;;;;;;;2.37;2.07;;;6.70;99.90;6.00;100304.00;;;;5306505;26;84482;-64
2024/04/18 06:40:15;;;;;;;3.23;2.20;;;6.60;99.90;6.10;100307.00;;;;5300991;26;93264;-64
2024/04/18 06:42:41;;;;;;;2.63;2.17;;;6.30;99.90;6.30;100315.00;;;;5304296;26;84497;-65
2024/04/18 06:45:07;;;;;;;7.57;2.70;;;6.90;99.90;6.50;100309.00;;;;5302136;26;114393;-65
2024/04/18 06:47:32;;;;;;;2.30;2.00;;;6.50;99.90;6.70;100330.00;;;;5306997;26;107419;-64
2024/04/18 06:49:58;;;;;;;4.63;2.20;;;6.80;99.90;6.90;100332.00;;;;5302233;26;107237;-64
2024/04/18 06:52:24;;;;;;;3.03;1.90;;;7.00;99.90;7.20;100335.00;;;;5302946;26;86510;-64
2024/04/18 06:54:49;;;;;;;2.43;1.23;;;7.20;99.90;7.40;100344.00;;;;5304126;26;116528;-64
2024/04/18 06:57:15;;;;;;;2.47;2.07;;;8.00;99.90;7.60;100340.00;;;;5297348;26;107909;-64
2024/04/18 06:59:41;;;;;;;2.07;1.37;;;7.70;99.90;7.70;100340.00;;;;5302205;26;106353;-64
2024/04/18 07:02:06;;;;;;;2.53;1.73;;;7.80;99.90;7.70;100354.00;;;;5300021;26;85848;-64
2024/04/18 07:04:32;;;;;;;2.53;2.13;;;7.90;99.90;7.70;100348.00;;;;5307011;26;105438;-64
2024/04/18 07:06:59;;;;;;;2.83;1.80;;;7.90;99.90;7.80;100347.00;;;;5303881;26;88314;-64
2024/04/18 07:09:25;;;;;;;2.47;1.63;;;7.90;99.90;7.90;100351.00;;;;5299835;26;84013;-64
2024/04/18 07:11:50;;;;;;;1.70;1.60;;;8.00;99.90;8.10;100351.00;;;;5303170;26;114641;-64
2024/04/18 07:14:16;;;;;;;2.40;2.00;;;8.20;99.90;8.40;100354.00;;;;5302034;26;113655;-64
2024/04/18 07:16:42;;;;;;;2.77;1.90;;;8.50;99.90;8.70;100353.00;;;;5304459;26;107513;-63
2024/04/18 07:19:07;;;;;;;0.80;0.80;;;8.70;99.90;9.00;100358.00;;;;5302764;26;106395;-63
2024/04/18 07:21:33;;;;;;;2.03;1.73;;;8.90;99.90;9.40;100360.00;;;;5308202;26;114648;-64
2024/04/18 07:23:59;;;;;;;1.80;1.70;;;9.30;99.90;9.80;100365.00;;;;5300789;26;115015;-64
2024/04/18 07:26:24;;;;;;;2.17;1.00;;;9.70;99.90;10.20;100375.00;;;;5301837;26;107372;-63
2024/04/18 07:28:50;;;;;;;2.73;1.60;;;10.10;99.90;10.60;100378.00;;;;5303684;26;104461;-64
2024/04/18 07:31:16;;;;;;;2.10;1.27;;;10.50;99.90;10.90;100382.00;;;;5297820;26;114142;-64
2024/04/18 07:33:41;;;;;;;1.77;1.60;;;10.80;99.90;11.10;100380.00;;;;5302412;26;112012;-65
2024/04/18 07:36:07;;;;;;;1.87;1.03;;;11.00;99.90;11.20;100385.00;;;;5302993;26;107199;-64
2024/04/18 07:38:32;;;;;;;1.23;1.03;;;11.20;99.90;11.30;100396.00;;;;5304352;26;84654;-64
2024/04/18 07:40:58;;;;;;;1.17;1.07;;;11.30;99.80;11.30;100387.00;;;;5297657;26;115095;-64
2024/04/18 07:43:24;;;;;;;1.40;1.10;;;11.30;99.10;11.30;100392.00;;;;5299128;26;116218;-64
2024/04/18 07:45:50;;;;;;;1.77;1.67;;;11.30;98.50;11.30;100388.00;;;;5298506;26;107371;-63
2024/04/18 07:48:15;;;;;;;1.77;1.17;;;11.30;98.20;11.40;100386.00;;;;5301329;26;89949;-64
2024/04/18 07:50:41;;;;;;;1.00;0.87;;;11.40;98.10;11.60;100394.00;;;;5303194;26;115139;-64
2024/04/18 07:53:07;;;;;;;2.30;1.00;;;11.60;97.70;11.80;100399.00;;;;5304128;26;112615;-64
2024/04/18 07:55:33;;;;;;;1.60;1.37;;;11.80;96.80;11.90;100400.00;;;;5304965;26;115948;-65
2024/04/18 07:57:58;;;;;;;0.70;0.70;;;11.90;95.80;11.80;100408.00;;;;5305424;26;83623;-64
2024/04/18 08:00:24;;;;;;;0.47;0.43;;;11.90;95.30;12.00;100404.00;;;;5302118;26;115853;-64
2024/04/18 08:02:50;;;;;;;0.60;0.60;;;12.00;95.30;12.30;100404.00;;;;5306321;26;85383;-65
2024/04/18 08:05:16;;;;;;;1.50;0.80;;;12.20;94.80;12.50;100402.00;;;;5308280;26;85799;-65
2024/04/18 08:07:41;;;;;;;1.00;0.90;;;12.40;94.50;12.60;100408.00;;;;5307450;26;84655;-65
2024/04/18 08:10:07;;;;;;;0.40;0.40;;;12.60;94.00;12.60;100423.00;;;;5304116;26;114723;-64
2024/04/18 08:12:33;;;;;;;0.87;0.77;;;13.00;93.20;12.40;100422.00;;;;5358723;25;90411;-64
2024/04/18 08:14:59;;;;;;;0.60;0.60;;;12.60;92.50;12.30;100428.00;;;;5301526;26;107648;-64
2024/04/18 08:17:26;;;;;;;0.83;0.83;;;12.40;92.10;12.10;100417.00;;;;5306564;26;84627;-65
2024/04/18 08:19:51;;;;;;;0.77;0.70;;;12.30;91.90;11.90;100424.00;;;;5305429;26;93933;-64
2024/04/18 08:22:18;;;;;;;1.10;0.70;;;12.10;91.50;11.70;100423.00;;;;5300459;26;113919;-64
2024/04/18 08:24:43;;;;;;;1.10;0.37;;;11.80;91.40;11.50;100429.00;;;;5312340;26;84713;-64
2024/04/18 08:27:10;;;;;;;2.90;0.70;;;11.70;91.40;11.40;100427.00;;;;5306119;26;106949;-65
2024/04/18 08:29:36;;;;;;;0.60;0.60;;;11.50;91.40;11.30;100420.00;;;;5307218;26;86549;-64
2024/04/18 08:32:02;;;;;;;1.57;0.63;;;11.40;90.90;11.30;100427.00;;;;5304745;26;86290;-65
2024/04/18 08:34:28;;;;;;;0.77;0.70;;;11.30;90.80;11.40;100422.00;;;;5305602;26;106655;-64
2024/04/18 08:36:53;;;;;;;1.40;0.70;;;11.30;90.80;11.70;100419.00;;;;5307451;26;106431;-64
2024/04/18 08:39:19;;;;;;;1.00;0.60;;;11.60;90.20;12.00;100424.00;;;;5302169;26;113885;-65
2024/04/18 08:41:45;;;;;;;0.43;0.43;;;11.80;88.90;12.30;100421.00;;;;5306918;26;114091;-65
2024/04/18 08:44:11;;;;;;;0.67;0.67;;;12.10;88.50;12.60;100431.00;;;;5307945;26;107252;-65
2024/04/18 08:46:37;;;;;;;0.80;0.53;;;12.40;87.60;12.80;100426.00;;;;5308268;26;91470;-64
2024/04/18 08:49:06;;;;;;;1.17;0.60;;;12.60;85.60;12.90;100435.00;;;;5309525;26;85545;-64
2024/04/18 08:51:37;;;;;;;0.40;0.40;;;12.80;84.50;13.00;100432.00;;;;5308678;26;103765;-64
2024/04/18 08:54:07;;;;;;;0.60;0.50;;;12.90;84.00;13.10;100433.00;;;;5298041;26;98079;-65
2024/04/18 08:56:34;;;;;;;0.50;0.50;;;13.00;82.70;13.00;100438.00;;;;5305727;26;84445;-65
2024/04/18 08:59:00;;;;;;;0.83;0.63;;;13.00;82.30;13.10;100432.00;;;;5307677;26;87670;-65
2024/04/18 09:01:26;;;;;;;0.40;0.40;;;13.00;81.30;13.30;100437.00;;;;5306645;26;86187;-64
2024/04/18 09:03:56;;;;;;;0.57;0.57;;;13.10;79.40;13.40;100430.00;;;;5307282;26;97309;-65
2024/04/18 09:06:22;;;;;;;0.63;0.63;;;13.30;75.80;13.60;100429.00;;;;5306315;26;84910;-65
2024/04/18 09:08:55;;;;;;;0.50;0.40;;;13.50;77.00;14.00;100436.00;;;;5309302;26;84626;-65
2024/04/18 09:11:22;;;;;;;0.20;0.20;;;13.70;75.40;14.30;100424.00;;;;5300907;26;85241;-65
2024/04/18 09:13:48;;;;;;;0.30;0.30;;;14.00;73.20;14.60;100424.00;;;;5310292;26;108191;-65
2024/04/18 09:16:14;;;;;;;0.20;0.20;;;14.30;66.50;14.70;100423.00;;;;5308289;26;84608;-64
2024/04/18 09:18:40;;;;;;;1.33;0.50;;;14.50;67.60;14.90;100432.00;;;;5309683;26;86102;-65
2024/04/18 09:21:10;;;;;;;0.37;0.37;;;14.60;66.00;15.10;100432.00;;;;5305814;26;109193;-65
2024/04/18 09:23:36;;;;;;;0.20;0.20;;;14.80;64.40;15.40;100423.00;;;;5304710;26;84553;-65
2024/04/18 09:26:03;;;;;;;0.77;0.35;;;15.10;62.20;15.70;100434.00;;;;5302576;26;88810;-64
2024/04/18 09:28:29;;;;;;;0.38;0.20;;;15.30;62.70;15.90;100438.00;;;;5306580;26;86035;-64
2024/04/18 09:30:55;;;;;;;0.30;0.30;;;15.60;62.60;16.00;100443.00;;;;5304684;26;113918;-65
2024/04/18 09:33:23;;;;;;;0.40;0.40;;;15.70;59.10;15.70;100448.00;;;;5308319;26;84490;-66
2024/04/18 09:35:52;;;;;;;0.70;0.68;;;15.60;58.10;15.30;100442.00;;;;5302392;26;83803;-65
2024/04/18 09:38:18;;;;;;;0.50;0.45;;;15.30;58.80;15.00;100448.00;;;;5305758;26;85835;-65
2024/04/18 09:41:00;;;;;;;0.52;0.52;;;15.10;59.30;14.70;100443.00;;;;5302925;26;93820;-65
2024/04/18 09:43:44;;;;;;;0.28;0.28;;;14.70;60.00;14.50;100442.00;;;;5301441;26;98652;-65
2024/04/18 09:46:10;;;;;;;0.20;0.20;;;14.60;60.90;14.40;100445.00;;;;5303374;26;84984;-65
2024/04/18 09:48:37;;;;;;;0.87;0.60;;;14.40;61.40;14.30;100447.00;;;;5308269;26;86489;-65
2024/04/18 09:51:03;;;;;;;0.20;0.20;;;14.30;61.30;14.10;100453.00;;;;5305933;26;114274;-65
2024/04/18 09:53:30;;;;;;;0.28;0.28;;;14.10;61.10;13.90;100453.00;;;;5307735;26;99634;-65
2024/04/18 09:55:58;;;;;;;0.20;0.20;;;13.90;61.10;13.70;100453.00;;;;5303687;26;84609;-66
2024/04/18 09:58:27;;;;;;;1.08;0.30;;;13.70;60.50;13.50;100450.00;;;;5306623;26;107477;-65
2024/04/18 10:00:55;;;;;;;0.20;0.20;;;13.50;61.20;13.30;100447.00;;;;5305390;26;97662;-65
2024/04/18 10:03:21;;;;;;;0.50;0.23;;;13.30;61.70;13.30;100449.00;;;;5355204;25;84816;-66
2024/04/18 10:05:51;;;;;;;0.40;0.30;;;13.20;62.00;13.20;100453.00;;;;5300462;26;84818;-65
2024/04/18 10:08:27;;;;;;;0.57;0.57;;;13.20;62.20;13.30;100455.00;;;;5303151;26;86611;-65
2024/04/18 10:10:53;;;;;;;1.10;0.40;;;13.20;62.50;13.40;100456.00;;;;5308831;26;86352;-65
2024/04/18 10:13:23;;;;;;;0.40;0.20;;;13.30;62.60;13.50;100456.00;;;;5309174;26;106773;-65
2024/04/18 10:15:48;;;;;;;0.50;0.50;;;13.40;62.40;13.60;100464.00;;;;5360989;25;84291;-65
2024/04/18 10:18:18;;;;;;;0.20;0.20;;;13.40;62.30;13.50;100458.00;;;;5302588;26;114138;-65
2024/04/18 10:20:47;;;;;;;0.30;0.30;;;13.40;62.20;13.40;100457.00;;;;5302885;26;99209;-65
2024/04/18 10:23:13;;;;;;;0.33;0.33;;;13.30;61.80;13.20;100464.00;;;;5303638;26;106977;-65
2024/04/18 10:25:40;;;;;;;0.30;0.30;;;13.10;61.70;12.90;100464.00;;;;5309449;26;83940;-64
2024/04/18 10:28:35;;;;;;;0.37;0.37;;;12.90;62.20;12.60;100468.00;;;;5303235;26;86039;-64
2024/04/18 10:31:04;;;;;;;0.37;0.20;;;12.70;63.40;12.50;100469.00;;;;5274059;26;84530;-64
2024/04/18 10:33:29;;;;;;;0.40;0.27;;;12.50;63.70;12.30;100471.00;;;;5307006;26;85641;-64
2024/04/18 10:35:55;;;;;;;0.67;0.33;;;12.40;64.30;12.30;100474.00;;;;5307002;26;105955;-64
2024/04/18 10:38:28;;;;;;;0.60;0.50;;;12.30;64.80;12.30;100476.00;;;;5300484;26;84987;-64
2024/04/18 10:41:00;;;;;;;0.53;0.50;;;12.20;64.70;12.20;100465.00;;;;5304668;26;85538;-64
2024/04/18 10:43:28;;;;;;;0.40;0.40;;;12.20;64.50;12.20;100459.00;;;;5303751;26;91729;-65
2024/04/18 10:45:55;;;;;;;0.57;0.57;;;12.10;64.30;12.10;100467.00;;;;5306225;26;87253;-65
2024/04/18 10:48:21;;;;;;;0.60;0.60;;;12.10;64.70;12.10;100473.00;;;;5305407;26;85335;-64
2024/04/18 10:50:51;;;;;;;0.60;0.60;;;12.00;64.90;12.10;100476.00;;;;5306588;26;92680;-64